sensor_id;sensor_type;location;lat;lon;timestamp;P1;durP1;ratioP1;P2;durP2;ratioP2
16029;SDS011;34770;49.272;11.070;2023-07-13T00:02:16;3.60;;;2.38;;
16029;SDS011;34770;49.272;11.070;2023-07-13T00:04:41;2.20;;;2.00;;
16029;SDS011;34770;49.272;11.070;2023-07-13T00:07:07;3.78;;;1.95;;
16029;SDS011;34770;49.272;11.070;2023-07-13T00:09:33;3.75;;;2.63;;
16029;SDS011;34770;49.272;11.070;2023-07-13T00:11:59;2.05;;;1.73;;
16029;SDS011;34770;49.272;11.070;2023-07-13T00:14:25;5.28;;;2.50;;
16029;SDS011;34770;49.272;11.070;2023-07-13T00:16:53;3.85;;;2.30;;
16029;SDS011;34770;49.272;11.070;2023-07-13T00:19:18;3.15;;;2.08;;
16029;SDS011;34770;49.272;11.070;2023-07-13T00:21:44;5.47;;;2.20;;
16029;SDS011;34770;49.272;11.070;2023-07-13T00:24:13;5.22;;;2.22;;
16029;SDS011;34770;49.272;11.070;2023-07-13T00:26:40;4.18;;;2.20;;
16029;SDS011;34770;49.272;11.070;2023-07-13T00:29:09;5.75;;;2.28;;
16029;SDS011;34770;49.272;11.070;2023-07-13T00:31:35;2.70;;;1.83;;
16029;SDS011;34770;49.272;11.070;2023-07-13T00:34:01;2.20;;;2.00;;
16029;SDS011;34770;49.272;11.070;2023-07-13T00:36:27;3.60;;;2.28;;
16029;SDS011;34770;49.272;11.070;2023-07-13T00:38:53;4.28;;;2.10;;
16029;SDS011;34770;49.272;11.070;2023-07-13T00:41:18;4.20;;;2.00;;
16029;SDS011;34770;49.272;11.070;2023-07-13T00:43:43;4.05;;;2.03;;
16029;SDS011;34770;49.272;11.070;2023-07-13T00:46:11;1.75;;;1.65;;
16029;SDS011;34770;49.272;11.070;2023-07-13T00:48:46;3.97;;;1.90;;
16029;SDS011;34770;49.272;11.070;2023-07-13T00:51:13;2.55;;;1.98;;
16029;SDS011;34770;49.272;11.070;2023-07-13T00:53:42;5.07;;;2.00;;
16029;SDS011;34770;49.272;11.070;2023-07-13T00:56:07;2.60;;;1.83;;
16029;SDS011;34770;49.272;11.070;2023-07-13T00:58:34;3.22;;;2.00;;
16029;SDS011;34770;49.272;11.070;2023-07-13T01:01:00;3.85;;;2.00;;
16029;SDS011;34770;49.272;11.070;2023-07-13T01:03:25;3.58;;;2.50;;
16029;SDS011;34770;49.272;11.070;2023-07-13T01:05:51;6.43;;;2.30;;
16029;SDS011;34770;49.272;11.070;2023-07-13T01:08:18;2.85;;;1.92;;
16029;SDS011;34770;49.272;11.070;2023-07-13T01:10:55;4.03;;;1.90;;
16029;SDS011;34770;49.272;11.070;2023-07-13T01:13:22;4.40;;;2.00;;
16029;SDS011;34770;49.272;11.070;2023-07-13T01:15:49;2.88;;;1.95;;
16029;SDS011;34770;49.272;11.070;2023-07-13T01:18:18;2.08;;;1.85;;
16029;SDS011;34770;49.272;11.070;2023-07-13T01:21:07;2.92;;;2.03;;
16029;SDS011;34770;49.272;11.070;2023-07-13T01:23:32;2.08;;;1.88;;
16029;SDS011;34770;49.272;11.070;2023-07-13T01:25:57;2.22;;;1.92;;
16029;SDS011;34770;49.272;11.070;2023-07-13T01:28:24;1.90;;;1.80;;
16029;SDS011;34770;49.272;11.070;2023-07-13T01:30:52;2.17;;;1.90;;
16029;SDS011;34770;49.272;11.070;2023-07-13T01:33:18;5.20;;;2.05;;
16029;SDS011;34770;49.272;11.070;2023-07-13T01:35:44;2.38;;;2.13;;
16029;SDS011;34770;49.272;11.070;2023-07-13T01:38:11;2.67;;;2.22;;
16029;SDS011;34770;49.272;11.070;2023-07-13T01:40:38;2.05;;;1.85;;
16029;SDS011;34770;49.272;11.070;2023-07-13T01:43:03;2.42;;;2.17;;
16029;SDS011;34770;49.272;11.070;2023-07-13T01:45:29;3.70;;;2.08;;
16029;SDS011;34770;49.272;11.070;2023-07-13T01:47:55;4.18;;;2.33;;
16029;SDS011;34770;49.272;11.070;2023-07-13T01:50:20;2.45;;;2.05;;
16029;SDS011;34770;49.272;11.070;2023-07-13T01:52:46;2.38;;;2.17;;
16029;SDS011;34770;49.272;11.070;2023-07-13T01:55:11;2.78;;;1.80;;
16029;SDS011;34770;49.272;11.070;2023-07-13T01:57:37;2.20;;;2.00;;
16029;SDS011;34770;49.272;11.070;2023-07-13T02:00:03;3.70;;;2.10;;
16029;SDS011;34770;49.272;11.070;2023-07-13T02:02:30;2.42;;;2.03;;
16029;SDS011;34770;49.272;11.070;2023-07-13T02:04:55;3.20;;;2.20;;
16029;SDS011;34770;49.272;11.070;2023-07-13T02:07:21;3.63;;;1.90;;
16029;SDS011;34770;49.272;11.070;2023-07-13T02:09:46;2.45;;;2.10;;
16029;SDS011;34770;49.272;11.070;2023-07-13T02:12:12;1.92;;;1.65;;
16029;SDS011;34770;49.272;11.070;2023-07-13T02:14:37;6.10;;;2.20;;
16029;SDS011;34770;49.272;11.070;2023-07-13T02:17:03;2.60;;;2.22;;
16029;SDS011;34770;49.272;11.070;2023-07-13T02:19:29;2.25;;;1.70;;
16029;SDS011;34770;49.272;11.070;2023-07-13T02:21:54;2.75;;;1.88;;
16029;SDS011;34770;49.272;11.070;2023-07-13T02:24:19;2.20;;;1.98;;
16029;SDS011;34770;49.272;11.070;2023-07-13T02:26:46;1.92;;;1.55;;
16029;SDS011;34770;49.272;11.070;2023-07-13T02:29:11;3.20;;;1.55;;
16029;SDS011;34770;49.272;11.070;2023-07-13T02:31:37;2.55;;;2.20;;
16029;SDS011;34770;49.272;11.070;2023-07-13T02:34:03;2.45;;;2.25;;
16029;SDS011;34770;49.272;11.070;2023-07-13T02:36:29;1.75;;;1.65;;
16029;SDS011;34770;49.272;11.070;2023-07-13T02:38:54;3.28;;;1.85;;
16029;SDS011;34770;49.272;11.070;2023-07-13T02:41:20;2.10;;;1.73;;
16029;SDS011;34770;49.272;11.070;2023-07-13T02:43:45;3.85;;;2.38;;
16029;SDS011;34770;49.272;11.070;2023-07-13T02:46:11;1.67;;;1.58;;
16029;SDS011;34770;49.272;11.070;2023-07-13T02:48:37;3.00;;;2.00;;
16029;SDS011;34770;49.272;11.070;2023-07-13T02:51:03;2.38;;;2.00;;
16029;SDS011;34770;49.272;11.070;2023-07-13T02:53:29;2.17;;;1.90;;
16029;SDS011;34770;49.272;11.070;2023-07-13T02:55:54;2.50;;;1.70;;
16029;SDS011;34770;49.272;11.070;2023-07-13T02:58:20;2.80;;;2.08;;
16029;SDS011;34770;49.272;11.070;2023-07-13T03:00:45;3.65;;;1.95;;
16029;SDS011;34770;49.272;11.070;2023-07-13T03:03:12;4.68;;;2.58;;
16029;SDS011;34770;49.272;11.070;2023-07-13T03:05:40;6.28;;;2.28;;
16029;SDS011;34770;49.272;11.070;2023-07-13T03:08:09;2.58;;;1.88;;
16029;SDS011;34770;49.272;11.070;2023-07-13T03:10:35;2.95;;;2.10;;
16029;SDS011;34770;49.272;11.070;2023-07-13T03:13:01;4.22;;;1.92;;
16029;SDS011;34770;49.272;11.070;2023-07-13T03:15:26;3.78;;;2.35;;
16029;SDS011;34770;49.272;11.070;2023-07-13T03:17:52;2.30;;;2.10;;
16029;SDS011;34770;49.272;11.070;2023-07-13T03:20:17;3.45;;;2.15;;
16029;SDS011;34770;49.272;11.070;2023-07-13T03:22:43;2.65;;;1.70;;
16029;SDS011;34770;49.272;11.070;2023-07-13T03:25:08;2.25;;;1.90;;
16029;SDS011;34770;49.272;11.070;2023-07-13T03:27:34;3.60;;;2.25;;
16029;SDS011;34770;49.272;11.070;2023-07-13T03:29:59;4.18;;;2.22;;
16029;SDS011;34770;49.272;11.070;2023-07-13T03:32:24;2.30;;;1.92;;
16029;SDS011;34770;49.272;11.070;2023-07-13T03:34:50;2.28;;;1.80;;
16029;SDS011;34770;49.272;11.070;2023-07-13T03:37:15;1.75;;;1.65;;
16029;SDS011;34770;49.272;11.070;2023-07-13T03:39:41;2.97;;;2.10;;
16029;SDS011;34770;49.272;11.070;2023-07-13T03:42:07;3.05;;;1.83;;
16029;SDS011;34770;49.272;11.070;2023-07-13T03:44:32;3.90;;;2.17;;
16029;SDS011;34770;49.272;11.070;2023-07-13T03:46:58;5.15;;;2.50;;
16029;SDS011;34770;49.272;11.070;2023-07-13T03:49:23;3.08;;;2.40;;
16029;SDS011;34770;49.272;11.070;2023-07-13T03:51:48;2.50;;;2.10;;
16029;SDS011;34770;49.272;11.070;2023-07-13T03:54:14;4.18;;;1.90;;
16029;SDS011;34770;49.272;11.070;2023-07-13T03:56:39;2.75;;;2.00;;
16029;SDS011;34770;49.272;11.070;2023-07-13T03:59:04;3.00;;;1.88;;
16029;SDS011;34770;49.272;11.070;2023-07-13T04:01:30;3.97;;;1.90;;
16029;SDS011;34770;49.272;11.070;2023-07-13T04:03:56;1.95;;;1.80;;
16029;SDS011;34770;49.272;11.070;2023-07-13T04:06:22;1.98;;;1.55;;
16029;SDS011;34770;49.272;11.070;2023-07-13T04:08:52;1.83;;;1.58;;
16029;SDS011;34770;49.272;11.070;2023-07-13T04:11:19;3.53;;;2.42;;
16029;SDS011;34770;49.272;11.070;2023-07-13T04:13:47;3.03;;;1.60;;
16029;SDS011;34770;49.272;11.070;2023-07-13T04:16:14;2.35;;;1.70;;
16029;SDS011;34770;49.272;11.070;2023-07-13T04:18:40;2.00;;;1.52;;
16029;SDS011;34770;49.272;11.070;2023-07-13T04:21:06;3.85;;;2.00;;
16029;SDS011;34770;49.272;11.070;2023-07-13T04:23:32;2.55;;;1.90;;
16029;SDS011;34770;49.272;11.070;2023-07-13T04:25:57;3.88;;;2.03;;
16029;SDS011;34770;49.272;11.070;2023-07-13T04:28:23;2.38;;;1.60;;
16029;SDS011;34770;49.272;11.070;2023-07-13T04:30:49;3.25;;;1.88;;
16029;SDS011;34770;49.272;11.070;2023-07-13T04:33:15;2.35;;;2.00;;
16029;SDS011;34770;49.272;11.070;2023-07-13T04:35:42;1.80;;;1.50;;
16029;SDS011;34770;49.272;11.070;2023-07-13T04:38:08;3.15;;;1.70;;
16029;SDS011;34770;49.272;11.070;2023-07-13T04:40:36;1.75;;;1.65;;
16029;SDS011;34770;49.272;11.070;2023-07-13T04:43:01;4.82;;;1.50;;
16029;SDS011;34770;49.272;11.070;2023-07-13T04:45:27;1.85;;;1.65;;
16029;SDS011;34770;49.272;11.070;2023-07-13T04:47:52;1.70;;;1.60;;
16029;SDS011;34770;49.272;11.070;2023-07-13T04:50:17;1.50;;;1.40;;
16029;SDS011;34770;49.272;11.070;2023-07-13T04:52:48;2.13;;;1.88;;
16029;SDS011;34770;49.272;11.070;2023-07-13T04:55:14;3.90;;;1.60;;
16029;SDS011;34770;49.272;11.070;2023-07-13T04:57:40;3.10;;;1.90;;
16029;SDS011;34770;49.272;11.070;2023-07-13T05:00:05;3.60;;;1.77;;
16029;SDS011;34770;49.272;11.070;2023-07-13T05:02:32;5.32;;;2.72;;
16029;SDS011;34770;49.272;11.070;2023-07-13T05:04:58;3.92;;;2.08;;
16029;SDS011;34770;49.272;11.070;2023-07-13T05:07:24;1.70;;;1.58;;
16029;SDS011;34770;49.272;11.070;2023-07-13T05:09:50;2.40;;;1.55;;
16029;SDS011;34770;49.272;11.070;2023-07-13T05:12:15;3.28;;;1.75;;
16029;SDS011;34770;49.272;11.070;2023-07-13T05:14:41;3.03;;;2.20;;
16029;SDS011;34770;49.272;11.070;2023-07-13T05:17:06;7.18;;;1.88;;
16029;SDS011;34770;49.272;11.070;2023-07-13T05:19:32;2.92;;;1.73;;
16029;SDS011;34770;49.272;11.070;2023-07-13T05:21:57;2.70;;;1.80;;
16029;SDS011;34770;49.272;11.070;2023-07-13T05:24:22;6.25;;;1.70;;
16029;SDS011;34770;49.272;11.070;2023-07-13T05:26:48;4.60;;;1.40;;
16029;SDS011;34770;49.272;11.070;2023-07-13T05:29:13;3.10;;;1.70;;
16029;SDS011;34770;49.272;11.070;2023-07-13T05:31:39;1.80;;;1.70;;
16029;SDS011;34770;49.272;11.070;2023-07-13T05:34:04;2.47;;;1.60;;
16029;SDS011;34770;49.272;11.070;2023-07-13T05:36:30;3.58;;;2.17;;
16029;SDS011;34770;49.272;11.070;2023-07-13T05:38:55;1.70;;;1.60;;
16029;SDS011;34770;49.272;11.070;2023-07-13T05:41:21;4.70;;;1.55;;
16029;SDS011;34770;49.272;11.070;2023-07-13T05:43:46;2.13;;;1.52;;
16029;SDS011;34770;49.272;11.070;2023-07-13T05:46:12;1.83;;;1.23;;
16029;SDS011;34770;49.272;11.070;2023-07-13T05:48:37;3.83;;;1.60;;
16029;SDS011;34770;49.272;11.070;2023-07-13T05:51:03;2.55;;;1.45;;
16029;SDS011;34770;49.272;11.070;2023-07-13T05:53:28;2.58;;;1.27;;
16029;SDS011;34770;49.272;11.070;2023-07-13T05:55:54;2.70;;;1.60;;
16029;SDS011;34770;49.272;11.070;2023-07-13T05:58:20;2.58;;;1.65;;
16029;SDS011;34770;49.272;11.070;2023-07-13T06:00:46;4.20;;;2.05;;
16029;SDS011;34770;49.272;11.070;2023-07-13T06:03:13;3.33;;;1.48;;
16029;SDS011;34770;49.272;11.070;2023-07-13T06:05:39;6.60;;;1.58;;
16029;SDS011;34770;49.272;11.070;2023-07-13T06:08:05;1.52;;;1.42;;
16029;SDS011;34770;49.272;11.070;2023-07-13T06:10:34;2.97;;;1.45;;
16029;SDS011;34770;49.272;11.070;2023-07-13T06:13:00;1.92;;;1.38;;
16029;SDS011;34770;49.272;11.070;2023-07-13T06:15:25;3.53;;;1.75;;
16029;SDS011;34770;49.272;11.070;2023-07-13T06:17:51;2.58;;;1.70;;
16029;SDS011;34770;49.272;11.070;2023-07-13T06:20:17;4.75;;;1.55;;
16029;SDS011;34770;49.272;11.070;2023-07-13T06:22:42;3.72;;;1.33;;
16029;SDS011;34770;49.272;11.070;2023-07-13T06:25:07;2.17;;;1.63;;
16029;SDS011;34770;49.272;11.070;2023-07-13T06:27:33;4.82;;;1.90;;
16029;SDS011;34770;49.272;11.070;2023-07-13T06:29:59;4.40;;;1.30;;
16029;SDS011;34770;49.272;11.070;2023-07-13T06:32:24;1.40;;;1.30;;
16029;SDS011;34770;49.272;11.070;2023-07-13T06:34:49;4.53;;;1.65;;
16029;SDS011;34770;49.272;11.070;2023-07-13T06:37:16;2.05;;;1.70;;
16029;SDS011;34770;49.272;11.070;2023-07-13T06:39:42;1.40;;;1.30;;
16029;SDS011;34770;49.272;11.070;2023-07-13T06:42:07;3.03;;;1.40;;
16029;SDS011;34770;49.272;11.070;2023-07-13T06:44:33;1.40;;;1.17;;
16029;SDS011;34770;49.272;11.070;2023-07-13T06:46:58;4.63;;;1.83;;
16029;SDS011;34770;49.272;11.070;2023-07-13T06:49:23;4.95;;;1.75;;
16029;SDS011;34770;49.272;11.070;2023-07-13T06:51:49;3.13;;;1.40;;
16029;SDS011;34770;49.272;11.070;2023-07-13T06:54:14;3.33;;;1.40;;
16029;SDS011;34770;49.272;11.070;2023-07-13T06:56:39;3.28;;;1.65;;
16029;SDS011;34770;49.272;11.070;2023-07-13T06:59:05;3.55;;;1.20;;
16029;SDS011;34770;49.272;11.070;2023-07-13T07:01:30;2.10;;;1.20;;
16029;SDS011;34770;49.272;11.070;2023-07-13T07:03:55;1.33;;;1.20;;
16029;SDS011;34770;49.272;11.070;2023-07-13T07:06:21;4.53;;;1.50;;
16029;SDS011;34770;49.272;11.070;2023-07-13T07:08:49;3.38;;;1.50;;
16029;SDS011;34770;49.272;11.070;2023-07-13T07:11:17;3.03;;;1.73;;
16029;SDS011;34770;49.272;11.070;2023-07-13T07:13:45;3.30;;;1.42;;
16029;SDS011;34770;49.272;11.070;2023-07-13T07:16:10;4.10;;;1.38;;
16029;SDS011;34770;49.272;11.070;2023-07-13T07:18:36;2.60;;;1.45;;
16029;SDS011;34770;49.272;11.070;2023-07-13T07:21:01;5.75;;;1.77;;
16029;SDS011;34770;49.272;11.070;2023-07-13T07:23:27;3.17;;;1.17;;
16029;SDS011;34770;49.272;11.070;2023-07-13T07:25:53;1.70;;;1.33;;
16029;SDS011;34770;49.272;11.070;2023-07-13T07:28:18;3.17;;;1.92;;
16029;SDS011;34770;49.272;11.070;2023-07-13T07:30:45;2.92;;;1.77;;
16029;SDS011;34770;49.272;11.070;2023-07-13T07:33:12;4.93;;;2.10;;
16029;SDS011;34770;49.272;11.070;2023-07-13T07:35:37;2.78;;;1.60;;
16029;SDS011;34770;49.272;11.070;2023-07-13T07:38:03;1.52;;;1.42;;
16029;SDS011;34770;49.272;11.070;2023-07-13T07:40:29;4.90;;;1.42;;
16029;SDS011;34770;49.272;11.070;2023-07-13T07:42:54;3.75;;;1.50;;
16029;SDS011;34770;49.272;11.070;2023-07-13T07:45:19;2.83;;;1.70;;
16029;SDS011;34770;49.272;11.070;2023-07-13T07:47:45;3.38;;;1.17;;
16029;SDS011;34770;49.272;11.070;2023-07-13T07:50:10;3.83;;;1.33;;
16029;SDS011;34770;49.272;11.070;2023-07-13T07:52:36;3.45;;;1.33;;
16029;SDS011;34770;49.272;11.070;2023-07-13T07:55:03;4.05;;;1.40;;
16029;SDS011;34770;49.272;11.070;2023-07-13T07:57:30;2.38;;;1.30;;
16029;SDS011;34770;49.272;11.070;2023-07-13T07:59:56;3.10;;;1.50;;
16029;SDS011;34770;49.272;11.070;2023-07-13T08:02:21;2.80;;;1.40;;
16029;SDS011;34770;49.272;11.070;2023-07-13T08:04:46;3.15;;;1.52;;
16029;SDS011;34770;49.272;11.070;2023-07-13T08:07:12;3.28;;;1.50;;
16029;SDS011;34770;49.272;11.070;2023-07-13T08:09:37;1.58;;;1.25;;
16029;SDS011;34770;49.272;11.070;2023-07-13T08:12:02;5.85;;;1.55;;
16029;SDS011;34770;49.272;11.070;2023-07-13T08:14:28;4.13;;;1.77;;
16029;SDS011;34770;49.272;11.070;2023-07-13T08:16:53;5.88;;;1.50;;
16029;SDS011;34770;49.272;11.070;2023-07-13T08:19:19;1.73;;;1.30;;
16029;SDS011;34770;49.272;11.070;2023-07-13T08:21:44;2.38;;;1.83;;
16029;SDS011;34770;49.272;11.070;2023-07-13T08:24:09;4.63;;;1.40;;
16029;SDS011;34770;49.272;11.070;2023-07-13T08:26:35;3.03;;;1.17;;
16029;SDS011;34770;49.272;11.070;2023-07-13T08:29:00;3.50;;;1.52;;
16029;SDS011;34770;49.272;11.070;2023-07-13T08:31:26;4.22;;;1.02;;
16029;SDS011;34770;49.272;11.070;2023-07-13T08:33:51;2.33;;;1.48;;
16029;SDS011;34770;49.272;11.070;2023-07-13T08:36:17;1.17;;;0.90;;
16029;SDS011;34770;49.272;11.070;2023-07-13T08:38:42;2.50;;;1.50;;
16029;SDS011;34770;49.272;11.070;2023-07-13T08:41:15;5.05;;;1.27;;
16029;SDS011;34770;49.272;11.070;2023-07-13T08:43:43;2.78;;;1.08;;
16029;SDS011;34770;49.272;11.070;2023-07-13T08:46:15;2.47;;;1.20;;
16029;SDS011;34770;49.272;11.070;2023-07-13T08:48:52;2.13;;;1.00;;
16029;SDS011;34770;49.272;11.070;2023-07-13T08:54:09;2.10;;;1.27;;
16029;SDS011;34770;49.272;11.070;2023-07-13T08:56:52;3.17;;;1.25;;
16029;SDS011;34770;49.272;11.070;2023-07-13T08:59:19;2.83;;;1.40;;
16029;SDS011;34770;49.272;11.070;2023-07-13T09:02:02;3.15;;;0.90;;
16029;SDS011;34770;49.272;11.070;2023-07-13T09:04:50;4.28;;;1.20;;
16029;SDS011;34770;49.272;11.070;2023-07-13T09:07:29;2.33;;;1.10;;
16029;SDS011;34770;49.272;11.070;2023-07-13T09:10:15;1.85;;;1.27;;
16029;SDS011;34770;49.272;11.070;2023-07-13T09:13:02;2.45;;;1.15;;
16029;SDS011;34770;49.272;11.070;2023-07-13T09:15:43;2.25;;;0.95;;
16029;SDS011;34770;49.272;11.070;2023-07-13T09:20:37;1.75;;;1.23;;
16029;SDS011;34770;49.272;11.070;2023-07-13T09:23:17;3.92;;;1.05;;
16029;SDS011;34770;49.272;11.070;2023-07-13T09:25:47;4.72;;;1.38;;
16029;SDS011;34770;49.272;11.070;2023-07-13T09:28:23;1.55;;;1.02;;
16029;SDS011;34770;49.272;11.070;2023-07-13T09:30:52;5.20;;;0.93;;
16029;SDS011;34770;49.272;11.070;2023-07-13T09:33:20;2.58;;;1.35;;
16029;SDS011;34770;49.272;11.070;2023-07-13T09:35:46;2.65;;;1.15;;
16029;SDS011;34770;49.272;11.070;2023-07-13T09:38:15;2.50;;;1.00;;
16029;SDS011;34770;49.272;11.070;2023-07-13T09:43:55;1.77;;;1.27;;
16029;SDS011;34770;49.272;11.070;2023-07-13T09:46:26;3.17;;;1.08;;
16029;SDS011;34770;49.272;11.070;2023-07-13T09:48:51;1.35;;;1.10;;
16029;SDS011;34770;49.272;11.070;2023-07-13T09:51:17;2.72;;;1.10;;
16029;SDS011;34770;49.272;11.070;2023-07-13T09:53:43;1.45;;;0.95;;
16029;SDS011;34770;49.272;11.070;2023-07-13T09:56:26;3.00;;;1.00;;
16029;SDS011;34770;49.272;11.070;2023-07-13T09:58:54;2.25;;;1.23;;
16029;SDS011;34770;49.272;11.070;2023-07-13T10:01:33;1.67;;;1.00;;
16029;SDS011;34770;49.272;11.070;2023-07-13T10:04:00;1.65;;;1.10;;
16029;SDS011;34770;49.272;11.070;2023-07-13T10:06:26;4.03;;;1.10;;
16029;SDS011;34770;49.272;11.070;2023-07-13T10:08:51;3.35;;;1.00;;
16029;SDS011;34770;49.272;11.070;2023-07-13T10:11:19;1.35;;;1.02;;
16029;SDS011;34770;49.272;11.070;2023-07-13T10:13:51;2.47;;;1.05;;
16029;SDS011;34770;49.272;11.070;2023-07-13T10:16:20;3.65;;;1.40;;
16029;SDS011;34770;49.272;11.070;2023-07-13T10:18:57;4.47;;;1.30;;
16029;SDS011;34770;49.272;11.070;2023-07-13T10:21:27;1.45;;;1.00;;
16029;SDS011;34770;49.272;11.070;2023-07-13T10:24:00;2.97;;;1.20;;
16029;SDS011;34770;49.272;11.070;2023-07-13T10:26:31;1.45;;;1.10;;
16029;SDS011;34770;49.272;11.070;2023-07-13T10:29:01;2.45;;;1.40;;
16029;SDS011;34770;49.272;11.070;2023-07-13T10:31:32;3.15;;;1.58;;
16029;SDS011;34770;49.272;11.070;2023-07-13T10:34:08;3.30;;;1.10;;
16029;SDS011;34770;49.272;11.070;2023-07-13T10:36:39;3.63;;;1.13;;
16029;SDS011;34770;49.272;11.070;2023-07-13T10:39:09;2.70;;;1.10;;
16029;SDS011;34770;49.272;11.070;2023-07-13T10:41:40;2.17;;;1.02;;
16029;SDS011;34770;49.272;11.070;2023-07-13T10:44:14;2.40;;;0.90;;
16029;SDS011;34770;49.272;11.070;2023-07-13T10:46:44;5.03;;;1.23;;
16029;SDS011;34770;49.272;11.070;2023-07-13T10:49:11;2.58;;;1.00;;
16029;SDS011;34770;49.272;11.070;2023-07-13T10:51:37;3.00;;;1.33;;
16029;SDS011;34770;49.272;11.070;2023-07-13T10:56:42;1.55;;;1.02;;
16029;SDS011;34770;49.272;11.070;2023-07-13T10:59:12;2.92;;;1.10;;
16029;SDS011;34770;49.272;11.070;2023-07-13T11:04:12;2.05;;;0.90;;
16029;SDS011;34770;49.272;11.070;2023-07-13T11:06:38;4.55;;;0.90;;
16029;SDS011;34770;49.272;11.070;2023-07-13T11:09:19;1.08;;;0.80;;
16029;SDS011;34770;49.272;11.070;2023-07-13T11:12:09;2.92;;;1.20;;
16029;SDS011;34770;49.272;11.070;2023-07-13T11:22:45;3.13;;;1.00;;
16029;SDS011;34770;49.272;11.070;2023-07-13T11:27:52;2.92;;;0.93;;
16029;SDS011;34770;49.272;11.070;2023-07-13T11:30:39;1.58;;;1.00;;
16029;SDS011;34770;49.272;11.070;2023-07-13T11:35:46;3.17;;;1.40;;
16029;SDS011;34770;49.272;11.070;2023-07-13T11:38:35;1.98;;;1.30;;
16029;SDS011;34770;49.272;11.070;2023-07-13T11:41:19;3.42;;;1.10;;
16029;SDS011;34770;49.272;11.070;2023-07-13T11:43:55;4.28;;;1.10;;
16029;SDS011;34770;49.272;11.070;2023-07-13T11:46:29;2.97;;;1.10;;
16029;SDS011;34770;49.272;11.070;2023-07-13T11:48:55;3.83;;;1.35;;
16029;SDS011;34770;49.272;11.070;2023-07-13T11:51:25;3.30;;;1.30;;
16029;SDS011;34770;49.272;11.070;2023-07-13T11:53:54;2.33;;;1.30;;
16029;SDS011;34770;49.272;11.070;2023-07-13T11:56:22;3.28;;;1.10;;
16029;SDS011;34770;49.272;11.070;2023-07-13T11:58:50;2.20;;;1.20;;
16029;SDS011;34770;49.272;11.070;2023-07-13T12:01:21;1.88;;;1.10;;
16029;SDS011;34770;49.272;11.070;2023-07-13T12:03:49;2.90;;;1.25;;
16029;SDS011;34770;49.272;11.070;2023-07-13T12:08:52;3.35;;;1.30;;
16029;SDS011;34770;49.272;11.070;2023-07-13T12:11:21;1.58;;;1.10;;
16029;SDS011;34770;49.272;11.070;2023-07-13T12:13:47;2.10;;;1.30;;
16029;SDS011;34770;49.272;11.070;2023-07-13T12:16:26;3.00;;;1.10;;
16029;SDS011;34770;49.272;11.070;2023-07-13T12:18:55;2.83;;;1.45;;
16029;SDS011;34770;49.272;11.070;2023-07-13T12:21:23;3.03;;;1.67;;
16029;SDS011;34770;49.272;11.070;2023-07-13T12:24:00;2.70;;;1.38;;
16029;SDS011;34770;49.272;11.070;2023-07-13T12:26:28;3.05;;;1.00;;
16029;SDS011;34770;49.272;11.070;2023-07-13T12:28:54;2.33;;;1.10;;
16029;SDS011;34770;49.272;11.070;2023-07-13T12:34:11;4.85;;;1.02;;
16029;SDS011;34770;49.272;11.070;2023-07-13T12:41:48;3.00;;;1.25;;
16029;SDS011;34770;49.272;11.070;2023-07-13T12:44:16;1.92;;;1.00;;
16029;SDS011;34770;49.272;11.070;2023-07-13T12:46:51;1.95;;;1.10;;
16029;SDS011;34770;49.272;11.070;2023-07-13T12:49:18;2.70;;;1.00;;
16029;SDS011;34770;49.272;11.070;2023-07-13T12:51:55;1.67;;;1.10;;
16029;SDS011;34770;49.272;11.070;2023-07-13T12:54:24;2.10;;;1.00;;
16029;SDS011;34770;49.272;11.070;2023-07-13T12:56:49;2.35;;;1.45;;
16029;SDS011;34770;49.272;11.070;2023-07-13T12:59:19;2.72;;;1.02;;
16029;SDS011;34770;49.272;11.070;2023-07-13T13:01:46;3.70;;;1.15;;
16029;SDS011;34770;49.272;11.070;2023-07-13T13:04:14;2.03;;;1.10;;
16029;SDS011;34770;49.272;11.070;2023-07-13T13:06:40;4.55;;;1.50;;
16029;SDS011;34770;49.272;11.070;2023-07-13T13:09:12;2.65;;;1.23;;
16029;SDS011;34770;49.272;11.070;2023-07-13T13:11:40;1.77;;;1.33;;
16029;SDS011;34770;49.272;11.070;2023-07-13T13:14:06;4.32;;;1.17;;
16029;SDS011;34770;49.272;11.070;2023-07-13T13:16:33;3.53;;;1.70;;
16029;SDS011;34770;49.272;11.070;2023-07-13T13:21:52;3.75;;;1.35;;
16029;SDS011;34770;49.272;11.070;2023-07-13T13:24:21;4.53;;;1.30;;
16029;SDS011;34770;49.272;11.070;2023-07-13T13:26:49;1.88;;;1.33;;
16029;SDS011;34770;49.272;11.070;2023-07-13T13:29:17;3.85;;;1.40;;
16029;SDS011;34770;49.272;11.070;2023-07-13T13:31:45;2.85;;;1.40;;
16029;SDS011;34770;49.272;11.070;2023-07-13T13:34:11;2.13;;;1.30;;
16029;SDS011;34770;49.272;11.070;2023-07-13T13:36:41;1.98;;;1.38;;
16029;SDS011;34770;49.272;11.070;2023-07-13T13:39:21;2.10;;;1.20;;
16029;SDS011;34770;49.272;11.070;2023-07-13T13:41:52;2.92;;;1.33;;
16029;SDS011;34770;49.272;11.070;2023-07-13T13:44:18;3.03;;;1.30;;
16029;SDS011;34770;49.272;11.070;2023-07-13T13:46:45;5.53;;;1.52;;
16029;SDS011;34770;49.272;11.070;2023-07-13T13:49:13;6.30;;;1.65;;
16029;SDS011;34770;49.272;11.070;2023-07-13T13:51:50;2.03;;;1.20;;
16029;SDS011;34770;49.272;11.070;2023-07-13T13:54:17;4.00;;;1.30;;
16029;SDS011;34770;49.272;11.070;2023-07-13T13:56:45;6.20;;;1.90;;
16029;SDS011;34770;49.272;11.070;2023-07-13T13:59:12;3.05;;;1.40;;
16029;SDS011;34770;49.272;11.070;2023-07-13T14:01:38;3.03;;;1.15;;
16029;SDS011;34770;49.272;11.070;2023-07-13T14:04:05;1.48;;;1.23;;
16029;SDS011;34770;49.272;11.070;2023-07-13T14:06:32;2.47;;;1.20;;
16029;SDS011;34770;49.272;11.070;2023-07-13T14:08:58;3.30;;;1.40;;
16029;SDS011;34770;49.272;11.070;2023-07-13T14:11:26;2.67;;;1.30;;
16029;SDS011;34770;49.272;11.070;2023-07-13T14:13:55;1.98;;;1.10;;
16029;SDS011;34770;49.272;11.070;2023-07-13T14:16:22;2.85;;;1.23;;
16029;SDS011;34770;49.272;11.070;2023-07-13T14:18:53;2.03;;;1.00;;
16029;SDS011;34770;49.272;11.070;2023-07-13T14:21:19;1.73;;;1.40;;
16029;SDS011;34770;49.272;11.070;2023-07-13T14:23:47;2.85;;;1.20;;
16029;SDS011;34770;49.272;11.070;2023-07-13T14:26:19;4.25;;;1.60;;
16029;SDS011;34770;49.272;11.070;2023-07-13T14:28:47;3.65;;;1.23;;
16029;SDS011;34770;49.272;11.070;2023-07-13T14:31:15;3.63;;;0.90;;
16029;SDS011;34770;49.272;11.070;2023-07-13T14:33:41;3.00;;;1.30;;
16029;SDS011;34770;49.272;11.070;2023-07-13T14:38:54;2.45;;;1.13;;
16029;SDS011;34770;49.272;11.070;2023-07-13T14:41:21;3.10;;;1.10;;
16029;SDS011;34770;49.272;11.070;2023-07-13T14:43:47;2.92;;;1.30;;
16029;SDS011;34770;49.272;11.070;2023-07-13T14:46:24;1.45;;;1.20;;
16029;SDS011;34770;49.272;11.070;2023-07-13T14:49:04;1.33;;;1.23;;
16029;SDS011;34770;49.272;11.070;2023-07-13T14:51:34;1.92;;;0.93;;
16029;SDS011;34770;49.272;11.070;2023-07-13T14:54:04;1.42;;;1.00;;
16029;SDS011;34770;49.272;11.070;2023-07-13T14:56:31;5.45;;;1.20;;
16029;SDS011;34770;49.272;11.070;2023-07-13T14:58:56;3.25;;;1.45;;
16029;SDS011;34770;49.272;11.070;2023-07-13T15:01:22;1.95;;;1.17;;
16029;SDS011;34770;49.272;11.070;2023-07-13T15:03:49;1.50;;;1.30;;
16029;SDS011;34770;49.272;11.070;2023-07-13T15:06:16;2.47;;;1.25;;
16029;SDS011;34770;49.272;11.070;2023-07-13T15:08:44;2.70;;;1.77;;
16029;SDS011;34770;49.272;11.070;2023-07-13T15:11:10;2.28;;;1.13;;
16029;SDS011;34770;49.272;11.070;2023-07-13T15:13:39;1.83;;;1.00;;
16029;SDS011;34770;49.272;11.070;2023-07-13T15:16:16;3.03;;;1.42;;
16029;SDS011;34770;49.272;11.070;2023-07-13T15:18:43;3.10;;;1.33;;
16029;SDS011;34770;49.272;11.070;2023-07-13T15:21:11;2.17;;;1.20;;